createdAt,value
2023-03-29T00:00:13.960Z,6.18
2023-03-29T00:03:02.179Z,6.72
2023-03-29T00:05:33.219Z,6.25
2023-03-29T00:08:04.357Z,6.82
2023-03-29T00:10:33.893Z,7.15
2023-03-29T00:13:02.767Z,6.63
2023-03-29T00:15:29.804Z,7.03
2023-03-29T00:17:58.220Z,6.55
2023-03-29T00:20:25.550Z,6.00
2023-03-29T00:22:52.775Z,7.43
2023-03-29T00:25:20.104Z,7.32
2023-03-29T00:27:47.325Z,8.27
2023-03-29T00:30:15.078Z,7.15
2023-03-29T00:32:43.240Z,8.40
2023-03-29T00:35:11.202Z,9.02
2023-03-29T00:37:38.553Z,8.45
2023-03-29T00:40:12.857Z,7.22
2023-03-29T00:42:48.269Z,8.27
2023-03-29T00:45:25.263Z,7.68
2023-03-29T00:47:57.973Z,7.53
2023-03-29T00:50:36.378Z,7.70
2023-03-29T00:53:20.108Z,7.40
2023-03-29T00:56:29.959Z,6.88
2023-03-29T00:59:05.205Z,7.32
2023-03-29T01:01:54.516Z,7.50
2023-03-29T01:04:54.886Z,7.55
2023-03-29T01:07:53.568Z,7.05
2023-03-29T01:10:41.852Z,6.78
2023-03-29T01:13:16.999Z,5.95
2023-03-29T01:15:47.640Z,6.28
2023-03-29T01:18:14.972Z,7.45
2023-03-29T01:21:14.857Z,7.22
2023-03-29T01:24:19.181Z,7.70
2023-03-29T01:27:05.389Z,6.90
2023-03-29T01:29:39.289Z,6.97
2023-03-29T01:32:26.592Z,5.85
2023-03-29T01:35:11.352Z,6.25
2023-03-29T01:37:49.424Z,6.53
2023-03-29T01:40:16.655Z,6.68
2023-03-29T01:43:06.198Z,7.65
2023-03-29T01:45:39.164Z,6.80
2023-03-29T01:48:36.815Z,6.80
2023-03-29T01:51:20.874Z,6.93
2023-03-29T01:54:41.430Z,6.70
2023-03-29T01:57:11.865Z,6.75
2023-03-29T01:59:44.654Z,6.78
2023-03-29T02:02:18.481Z,7.18
2023-03-29T02:04:53.720Z,6.53
2023-03-29T02:07:30.799Z,6.20
2023-03-29T02:09:59.469Z,6.32
2023-03-29T02:12:27.054Z,6.65
2023-03-29T02:14:54.416Z,6.47
2023-03-29T02:17:25.112Z,6.45
2023-03-29T02:20:17.385Z,6.40
2023-03-29T02:23:27.846Z,7.47
2023-03-29T02:25:57.060Z,6.78
2023-03-29T02:28:25.472Z,6.97
2023-03-29T02:31:23.046Z,7.97
2023-03-29T02:34:06.845Z,5.93
2023-03-29T02:36:53.584Z,6.55
2023-03-29T02:39:22.950Z,6.68
2023-03-29T02:41:52.209Z,6.03
2023-03-29T02:44:24.873Z,5.63
2023-03-29T02:46:58.843Z,6.80
2023-03-29T02:49:27.044Z,5.20
2023-03-29T02:51:59.872Z,5.47
2023-03-29T02:54:31.832Z,5.43
2023-03-29T02:57:04.849Z,6.05
2023-03-29T02:59:33.400Z,6.03
2023-03-29T03:02:01.473Z,5.50
2023-03-29T03:04:29.470Z,5.03
2023-03-29T03:06:56.691Z,5.30
2023-03-29T03:09:24.238Z,5.80
2023-03-29T03:11:51.423Z,5.32
2023-03-29T03:14:19.156Z,5.45
2023-03-29T03:16:46.397Z,6.80
2023-03-29T03:19:14.212Z,6.15
2023-03-29T03:21:41.409Z,5.53
2023-03-29T03:24:08.332Z,6.05
2023-03-29T03:26:36.045Z,4.93
2023-03-29T03:29:03.083Z,4.53
2023-03-29T03:31:30.843Z,5.82
2023-03-29T03:33:58.080Z,4.85
2023-03-29T03:36:26.379Z,5.20
2023-03-29T03:38:53.596Z,4.70
2023-03-29T03:41:20.938Z,4.72
2023-03-29T03:43:49.183Z,5.10
2023-03-29T03:46:17.314Z,4.60
2023-03-29T03:48:47.266Z,5.28
2023-03-29T03:51:14.556Z,5.03
2023-03-29T03:53:41.664Z,4.20
2023-03-29T03:56:09.341Z,5.50
2023-03-29T03:58:37.743Z,4.88
2023-03-29T04:01:08.468Z,6.72
2023-03-29T04:03:36.080Z,5.85
2023-03-29T04:06:04.816Z,5.93
2023-03-29T04:08:32.101Z,5.53
2023-03-29T04:11:00.248Z,5.63
2023-03-29T04:13:28.136Z,5.68
2023-03-29T04:15:58.748Z,5.15
2023-03-29T04:18:27.768Z,5.20
2023-03-29T04:20:55.332Z,5.95
2023-03-29T04:23:22.748Z,5.53
2023-03-29T04:25:50.228Z,4.70
2023-03-29T04:28:17.653Z,4.05
2023-03-29T04:30:47.362Z,5.00
2023-03-29T04:33:14.876Z,4.80
2023-03-29T04:35:42.555Z,4.40
2023-03-29T04:38:10.237Z,4.30
2023-03-29T04:40:38.402Z,4.40
2023-03-29T04:43:06.359Z,3.90
2023-03-29T04:45:33.505Z,4.00
2023-03-29T04:48:00.543Z,4.55
2023-03-29T04:50:28.303Z,5.03
2023-03-29T04:52:55.695Z,4.13
2023-03-29T04:55:22.974Z,4.90
2023-03-29T04:57:49.944Z,4.88
2023-03-29T05:00:17.683Z,5.10
2023-03-29T05:02:45.833Z,5.00
2023-03-29T05:05:14.331Z,4.68
2023-03-29T05:07:41.673Z,3.53
2023-03-29T05:10:09.369Z,4.45
2023-03-29T05:12:36.891Z,3.72
2023-03-29T05:15:09.692Z,4.20
2023-03-29T05:17:36.805Z,4.85
2023-03-29T05:20:11.269Z,4.30
2023-03-29T05:22:39.071Z,4.53
2023-03-29T05:25:08.292Z,3.08
2023-03-29T05:27:36.026Z,6.07
2023-03-29T05:30:04.022Z,4.50
2023-03-29T05:32:31.067Z,3.83
2023-03-29T05:34:58.739Z,4.35
2023-03-29T05:37:26.663Z,4.20
2023-03-29T05:39:55.032Z,4.68
2023-03-29T05:42:33.239Z,4.65
2023-03-29T05:45:00.820Z,4.30
2023-03-29T05:47:28.689Z,4.13
2023-03-29T05:49:57.327Z,4.50
2023-03-29T05:52:24.920Z,4.65
2023-03-29T05:54:52.412Z,3.92
2023-03-29T05:57:19.694Z,4.20
2023-03-29T05:59:48.040Z,3.50
2023-03-29T06:02:16.141Z,3.60
2023-03-29T06:04:43.479Z,4.40
2023-03-29T06:07:12.619Z,5.65
2023-03-29T06:09:39.979Z,3.53
2023-03-29T06:12:08.459Z,3.22
2023-03-29T06:14:36.455Z,3.65
2023-03-29T06:17:03.996Z,4.07
2023-03-29T06:19:31.891Z,3.28
2023-03-29T06:21:58.838Z,3.63
2023-03-29T06:24:26.136Z,4.78
2023-03-29T06:26:53.349Z,3.40
2023-03-29T06:29:20.844Z,3.10
2023-03-29T06:31:48.217Z,3.50
2023-03-29T06:34:16.484Z,4.22
2023-03-29T06:36:43.380Z,3.55
2023-03-29T06:39:11.161Z,4.10
2023-03-29T06:41:38.740Z,4.00
2023-03-29T06:44:06.127Z,5.07
2023-03-29T06:46:33.166Z,3.47
2023-03-29T06:49:01.151Z,3.40
2023-03-29T06:51:28.116Z,3.53
2023-03-29T06:53:55.580Z,3.42
2023-03-29T06:56:22.627Z,3.65
2023-03-29T06:58:49.893Z,3.85
2023-03-29T07:01:17.208Z,4.18
2023-03-29T07:03:46.759Z,4.18
2023-03-29T07:06:15.037Z,3.92
2023-03-29T07:08:47.398Z,3.80
2023-03-29T07:11:16.338Z,4.10
2023-03-29T07:13:44.978Z,3.83
2023-03-29T07:16:13.809Z,4.90
2023-03-29T07:18:44.140Z,4.90
2023-03-29T07:21:13.526Z,3.67
2023-03-29T07:23:41.340Z,4.43
2023-03-29T07:26:08.969Z,3.92
2023-03-29T07:28:43.243Z,3.35
2023-03-29T07:31:12.390Z,7.78
2023-03-29T07:33:40.076Z,3.90
2023-03-29T07:36:08.460Z,3.05
2023-03-29T07:38:36.906Z,6.15
2023-03-29T07:41:07.926Z,3.67
2023-03-29T07:43:35.733Z,3.88
2023-03-29T07:46:05.489Z,4.10
2023-03-29T07:48:34.512Z,3.72
2023-03-29T07:51:01.997Z,3.42
2023-03-29T07:53:32.303Z,3.60
2023-03-29T07:55:59.467Z,3.55
2023-03-29T07:58:26.730Z,3.58
2023-03-29T08:00:53.836Z,4.15
2023-03-29T08:03:21.750Z,4.10
2023-03-29T08:05:48.963Z,4.90
2023-03-29T08:08:16.140Z,4.05
2023-03-29T08:10:43.093Z,4.43
2023-03-29T08:13:11.922Z,3.90
2023-03-29T08:15:40.960Z,3.85
2023-03-29T08:18:08.454Z,3.90
2023-03-29T08:20:35.579Z,3.92
2023-03-29T08:23:02.966Z,4.13
2023-03-29T08:25:30.064Z,3.35
2023-03-29T08:27:57.304Z,3.88
2023-03-29T08:30:25.155Z,4.22
2023-03-29T08:32:55.187Z,4.72
2023-03-29T08:35:22.922Z,3.30
2023-03-29T08:37:50.315Z,3.58
2023-03-29T08:40:24.060Z,4.40
2023-03-29T08:43:18.911Z,4.28
2023-03-29T08:46:09.089Z,3.95
2023-03-29T08:48:45.472Z,3.47
2023-03-29T08:51:24.585Z,3.85
2023-03-29T08:54:01.505Z,3.63
2023-03-29T08:56:34.431Z,3.80
2023-03-29T08:59:02.396Z,4.15
2023-03-29T09:01:36.392Z,4.07
2023-03-29T09:04:10.185Z,4.30
2023-03-29T09:06:40.083Z,3.97
2023-03-29T09:09:17.423Z,3.80
2023-03-29T09:11:47.100Z,4.82
2023-03-29T09:14:57.590Z,4.18
2023-03-29T09:18:01.627Z,3.42
2023-03-29T09:21:11.712Z,3.08
2023-03-29T09:24:15.596Z,3.00
2023-03-29T09:26:54.821Z,3.17
2023-03-29T09:29:41.183Z,3.70
2023-03-29T09:32:22.378Z,3.85
2023-03-29T09:35:18.186Z,3.47
2023-03-29T09:37:49.184Z,2.80
2023-03-29T09:40:41.891Z,3.92
2023-03-29T09:43:15.116Z,3.22
2023-03-29T09:45:44.033Z,3.38
2023-03-29T09:48:19.336Z,2.60
2023-03-29T09:53:16.403Z,2.97
2023-03-29T09:55:49.727Z,4.03
2023-03-29T09:58:23.339Z,4.27
2023-03-29T10:00:51.059Z,3.85
2023-03-29T10:03:25.554Z,2.25
2023-03-29T10:05:56.951Z,2.97
2023-03-29T10:08:44.182Z,2.60
2023-03-29T10:11:28.974Z,3.33
2023-03-29T10:14:04.743Z,3.03
2023-03-29T10:16:41.227Z,2.55
2023-03-29T10:19:28.320Z,2.65
2023-03-29T10:21:59.873Z,2.08
2023-03-29T10:24:28.260Z,3.15
2023-03-29T10:27:02.649Z,3.00
2023-03-29T10:29:41.119Z,2.50
2023-03-29T10:32:38.801Z,2.63
2023-03-29T10:35:26.166Z,2.20
2023-03-29T10:37:58.346Z,2.30
2023-03-29T10:40:25.503Z,2.00
2023-03-29T10:42:57.641Z,2.42
2023-03-29T10:45:31.887Z,2.55
2023-03-29T10:47:59.218Z,2.35
2023-03-29T10:50:34.594Z,2.28
2023-03-29T10:56:13.831Z,3.08
2023-03-29T10:58:52.725Z,2.55
2023-03-29T11:01:57.974Z,3.00
2023-03-29T11:04:38.193Z,2.63
2023-03-29T11:07:34.650Z,2.78
2023-03-29T11:10:16.874Z,2.50
2023-03-29T11:13:34.572Z,2.67
2023-03-29T11:16:42.101Z,3.17
2023-03-29T11:19:34.215Z,2.78
2023-03-29T11:22:57.310Z,3.08
2023-03-29T11:26:01.567Z,3.10
2023-03-29T11:28:55.343Z,3.22
2023-03-29T11:31:40.838Z,3.00
2023-03-29T11:34:39.650Z,3.95
2023-03-29T11:37:44.060Z,2.88
2023-03-29T11:40:42.802Z,3.60
2023-03-29T11:43:19.183Z,3.60
2023-03-29T11:46:00.985Z,3.63
2023-03-29T11:49:15.295Z,4.45
2023-03-29T11:51:59.531Z,4.85
2023-03-29T11:54:57.391Z,3.10
2023-03-29T11:58:06.569Z,2.63
2023-03-29T12:00:44.941Z,2.95
2023-03-29T12:03:35.339Z,3.58
2023-03-29T12:06:27.972Z,3.20
2023-03-29T12:09:10.982Z,3.75
2023-03-29T12:11:57.745Z,3.22
2023-03-29T12:14:42.554Z,2.88
2023-03-29T12:17:18.646Z,3.10
2023-03-29T12:20:02.680Z,3.88
2023-03-29T12:22:31.320Z,4.18
2023-03-29T12:25:00.650Z,2.97
2023-03-29T12:27:37.552Z,3.03
2023-03-29T12:30:34.219Z,3.08
2023-03-29T12:33:32.939Z,3.80
2023-03-29T12:36:41.578Z,3.10
2023-03-29T12:39:17.833Z,3.90
2023-03-29T12:41:49.026Z,3.30
2023-03-29T12:44:22.778Z,3.60
2023-03-29T12:47:00.502Z,3.45
2023-03-29T12:49:39.058Z,2.90
2023-03-29T12:52:27.139Z,3.30
2023-03-29T12:54:59.403Z,3.45
2023-03-29T12:57:43.106Z,3.85
2023-03-29T13:00:39.715Z,3.30
2023-03-29T13:03:46.565Z,3.65
2023-03-29T13:06:28.964Z,3.00
2023-03-29T13:09:22.639Z,3.00
2023-03-29T13:12:13.464Z,20.10
2023-03-29T13:14:46.488Z,4.50
2023-03-29T13:17:49.000Z,3.05
2023-03-29T13:20:41.052Z,3.40
2023-03-29T13:23:29.468Z,3.40
2023-03-29T13:26:40.927Z,3.70
2023-03-29T13:29:47.970Z,3.70
2023-03-29T13:32:38.919Z,3.58
2023-03-29T13:35:35.796Z,3.40
2023-03-29T13:38:08.108Z,3.33
2023-03-29T13:40:44.352Z,3.42
2023-03-29T13:43:20.227Z,2.80
2023-03-29T13:45:59.394Z,3.88
2023-03-29T13:48:48.999Z,3.40
2023-03-29T13:51:19.308Z,2.67
2023-03-29T13:54:03.397Z,3.17
2023-03-29T13:56:58.088Z,3.63
2023-03-29T14:00:02.601Z,3.20
2023-03-29T14:02:41.922Z,3.85
2023-03-29T14:05:14.915Z,3.20
2023-03-29T14:07:53.455Z,3.70
2023-03-29T14:10:39.834Z,3.53
2023-03-29T14:13:13.760Z,3.65
2023-03-29T14:15:53.536Z,3.20
2023-03-29T14:18:27.698Z,3.05
2023-03-29T14:20:56.229Z,3.28
2023-03-29T14:23:27.451Z,3.45
2023-03-29T14:25:54.334Z,3.40
2023-03-29T14:28:28.534Z,2.67
2023-03-29T14:30:56.746Z,3.40
2023-03-29T14:33:34.949Z,3.53
2023-03-29T14:36:05.117Z,3.63
2023-03-29T14:38:35.613Z,3.38
2023-03-29T14:41:03.847Z,3.35
2023-03-29T14:43:32.194Z,2.83
2023-03-29T14:46:06.318Z,2.53
2023-03-29T14:48:35.691Z,4.00
2023-03-29T14:51:04.141Z,3.47
2023-03-29T14:53:34.464Z,3.58
2023-03-29T14:56:02.504Z,3.45
2023-03-29T14:58:35.394Z,2.92
2023-03-29T15:01:19.142Z,3.03
2023-03-29T15:04:09.120Z,3.03
2023-03-29T15:06:43.661Z,3.55
2023-03-29T15:09:34.172Z,3.75
2023-03-29T15:12:03.565Z,2.83
2023-03-29T15:14:37.071Z,3.92
2023-03-29T15:17:50.216Z,3.05
2023-03-29T15:20:25.775Z,2.88
2023-03-29T15:23:02.196Z,3.45
2023-03-29T15:25:38.388Z,2.65
2023-03-29T15:28:06.238Z,3.20
2023-03-29T15:30:38.696Z,3.00
2023-03-29T15:33:24.831Z,3.05
2023-03-29T15:35:54.033Z,3.42
2023-03-29T15:38:27.511Z,2.65
2023-03-29T15:41:01.739Z,2.90
2023-03-29T15:43:28.985Z,2.83
2023-03-29T15:45:56.561Z,2.78
2023-03-29T15:48:27.306Z,2.53
2023-03-29T15:50:55.309Z,3.25
2023-03-29T15:53:23.722Z,3.03
2023-03-29T15:55:54.949Z,2.97
2023-03-29T15:58:30.165Z,5.13
2023-03-29T16:01:37.646Z,3.40
2023-03-29T16:04:14.173Z,3.17
2023-03-29T16:06:42.607Z,3.50
2023-03-29T16:09:11.901Z,3.30
2023-03-29T16:11:41.560Z,3.10
2023-03-29T16:14:31.517Z,4.03
2023-03-29T16:17:01.391Z,3.05
2023-03-29T16:19:31.611Z,2.88
2023-03-29T16:22:02.331Z,3.53
2023-03-29T16:24:32.152Z,3.70
2023-03-29T16:27:01.402Z,3.20
2023-03-29T16:29:29.605Z,3.30
2023-03-29T16:31:57.270Z,3.47
2023-03-29T16:34:24.440Z,3.58
2023-03-29T16:36:53.093Z,3.42
2023-03-29T16:39:20.082Z,3.40
2023-03-29T16:41:49.082Z,3.35
2023-03-29T16:44:21.672Z,3.97
2023-03-29T16:46:50.464Z,3.37
2023-03-29T16:49:18.736Z,2.95
2023-03-29T16:51:47.437Z,3.42
2023-03-29T16:54:17.254Z,4.30
2023-03-29T16:56:44.995Z,3.75
2023-03-29T16:59:12.276Z,3.58
2023-03-29T17:01:40.596Z,3.80
2023-03-29T17:04:09.020Z,3.30
2023-03-29T17:06:36.438Z,3.40
2023-03-29T17:09:05.232Z,3.30
2023-03-29T17:11:32.903Z,3.17
2023-03-29T17:14:00.221Z,3.42
2023-03-29T17:16:29.118Z,3.50
2023-03-29T17:19:00.609Z,3.78
2023-03-29T17:21:29.318Z,3.85
2023-03-29T17:23:56.418Z,4.65
2023-03-29T17:26:23.924Z,4.70
2023-03-29T17:28:51.010Z,3.55
2023-03-29T17:31:19.576Z,3.58
2023-03-29T17:33:47.578Z,3.60
2023-03-29T17:36:15.057Z,3.85
2023-03-29T17:38:42.831Z,4.22
2023-03-29T17:41:10.226Z,3.83
2023-03-29T17:43:37.166Z,3.67
2023-03-29T17:46:04.963Z,3.70
2023-03-29T17:48:32.948Z,4.43
2023-03-29T17:51:00.325Z,4.38
2023-03-29T17:53:27.464Z,3.33
2023-03-29T17:55:55.016Z,4.55
2023-03-29T17:58:22.039Z,4.00
2023-03-29T18:00:49.854Z,3.83
2023-03-29T18:03:19.641Z,4.05
2023-03-29T18:05:51.614Z,4.70
2023-03-29T18:08:20.382Z,4.75
2023-03-29T18:10:48.320Z,4.47
2023-03-29T18:13:16.048Z,5.10
2023-03-29T18:15:45.237Z,5.10
2023-03-29T18:18:12.121Z,5.30
2023-03-29T18:20:39.378Z,4.50
2023-03-29T18:23:06.580Z,3.83
2023-03-29T18:25:34.264Z,4.65
2023-03-29T18:28:01.167Z,5.32
2023-03-29T18:30:28.509Z,5.18
2023-03-29T18:32:55.686Z,5.38
2023-03-29T18:35:23.705Z,4.80
2023-03-29T18:37:51.578Z,6.78
2023-03-29T18:40:24.708Z,5.05
2023-03-29T18:42:52.372Z,5.80
2023-03-29T18:45:19.992Z,5.65
2023-03-29T18:47:47.044Z,5.82
2023-03-29T18:50:14.413Z,4.85
2023-03-29T18:52:42.119Z,5.97
2023-03-29T18:55:10.309Z,5.57
2023-03-29T18:57:37.387Z,6.28
2023-03-29T19:00:10.641Z,6.47
2023-03-29T19:02:39.812Z,5.90
2023-03-29T19:05:08.698Z,9.23
2023-03-29T19:07:36.803Z,7.40
2023-03-29T19:10:06.783Z,5.32
2023-03-29T19:12:34.064Z,6.03
2023-03-29T19:15:01.950Z,6.43
2023-03-29T19:17:28.893Z,11.45
2023-03-29T19:19:56.819Z,9.65
2023-03-29T19:22:23.806Z,9.25
2023-03-29T19:24:51.511Z,6.82
2023-03-29T19:27:18.662Z,5.72
2023-03-29T19:29:46.231Z,7.28
2023-03-29T19:32:13.739Z,5.90
2023-03-29T19:34:41.006Z,6.30
2023-03-29T19:37:07.980Z,9.82
2023-03-29T19:39:35.346Z,12.35
2023-03-29T19:42:02.318Z,7.00
2023-03-29T19:44:30.302Z,7.43
2023-03-29T19:46:57.294Z,7.20
2023-03-29T19:49:24.532Z,6.55
2023-03-29T19:51:55.596Z,6.53
2023-03-29T19:54:24.149Z,6.38
2023-03-29T19:56:52.825Z,6.95
2023-03-29T19:59:20.326Z,6.68
2023-03-29T20:01:51.181Z,6.40
2023-03-29T20:04:22.740Z,7.40
2023-03-29T20:06:50.048Z,7.65
2023-03-29T20:09:17.370Z,7.10
2023-03-29T20:11:45.012Z,6.38
2023-03-29T20:14:12.636Z,6.68
2023-03-29T20:16:40.509Z,7.30
2023-03-29T20:19:08.115Z,6.97
2023-03-29T20:21:37.348Z,7.60
2023-03-29T20:24:05.951Z,7.63
2023-03-29T20:26:33.059Z,7.53
2023-03-29T20:29:00.700Z,7.00
2023-03-29T20:31:29.556Z,7.03
2023-03-29T20:33:57.658Z,6.18
2023-03-29T20:36:26.703Z,6.00
2023-03-29T20:38:56.307Z,5.25
2023-03-29T20:41:23.604Z,5.70
2023-03-29T20:43:58.437Z,5.95
2023-03-29T20:46:34.879Z,5.18
2023-03-29T20:49:11.207Z,5.63
2023-03-29T20:51:39.738Z,5.05
2023-03-29T20:54:07.589Z,6.07
2023-03-29T20:56:39.130Z,5.50
2023-03-29T20:59:10.728Z,5.93
2023-03-29T21:01:41.057Z,5.85
2023-03-29T21:04:10.888Z,5.78
2023-03-29T21:06:39.659Z,6.07
2023-03-29T21:09:07.480Z,6.53
2023-03-29T21:11:34.501Z,6.57
2023-03-29T21:14:02.685Z,6.78
2023-03-29T21:16:29.929Z,5.63
2023-03-29T21:18:57.258Z,7.45
2023-03-29T21:21:24.308Z,5.60
2023-03-29T21:23:51.524Z,6.25
2023-03-29T21:26:18.439Z,6.80
2023-03-29T21:28:45.930Z,6.35
2023-03-29T21:31:12.887Z,6.35
2023-03-29T21:33:40.109Z,6.72
2023-03-29T21:36:08.284Z,7.25
2023-03-29T21:38:35.793Z,6.57
2023-03-29T21:41:03.277Z,6.80
2023-03-29T21:43:30.824Z,6.75
2023-03-29T21:45:57.867Z,6.78
2023-03-29T21:48:25.153Z,6.43
2023-03-29T21:50:52.097Z,7.18
2023-03-29T21:53:19.321Z,7.20
2023-03-29T21:55:49.617Z,6.55
2023-03-29T21:58:19.557Z,7.28
2023-03-29T22:00:47.937Z,6.15
2023-03-29T22:03:16.666Z,7.07
2023-03-29T22:05:44.449Z,7.45
2023-03-29T22:08:11.800Z,7.43
2023-03-29T22:10:41.478Z,6.93
2023-03-29T22:13:09.432Z,6.72
2023-03-29T22:15:36.429Z,6.47
2023-03-29T22:18:05.195Z,7.18
2023-03-29T22:20:35.704Z,6.97
2023-03-29T22:23:03.434Z,5.80
2023-03-29T22:25:30.565Z,7.15
2023-03-29T22:27:58.077Z,6.53
2023-03-29T22:30:25.122Z,6.32
2023-03-29T22:32:52.662Z,5.78
2023-03-29T22:35:19.729Z,5.03
2023-03-29T22:37:47.140Z,6.10
2023-03-29T22:40:14.406Z,5.82
2023-03-29T22:42:41.746Z,5.53
2023-03-29T22:45:09.831Z,6.30
2023-03-29T22:47:37.251Z,6.35
2023-03-29T22:50:04.840Z,5.85
2023-03-29T22:52:32.201Z,5.57
2023-03-29T22:54:59.263Z,5.32
2023-03-29T22:57:26.641Z,5.18
2023-03-29T22:59:53.881Z,5.25
2023-03-29T23:02:21.780Z,5.75
2023-03-29T23:04:49.102Z,5.43
2023-03-29T23:07:16.762Z,5.38
2023-03-29T23:09:43.819Z,5.95
2023-03-29T23:12:11.127Z,6.03
2023-03-29T23:14:42.610Z,6.22
2023-03-29T23:17:10.407Z,6.28
2023-03-29T23:19:38.147Z,5.60
2023-03-29T23:22:05.652Z,5.63
2023-03-29T23:24:32.819Z,5.88
2023-03-29T23:27:01.189Z,7.68
2023-03-29T23:29:28.402Z,7.05
2023-03-29T23:31:56.928Z,6.15
2023-03-29T23:34:24.138Z,5.05
2023-03-29T23:36:51.629Z,5.20
2023-03-29T23:39:18.733Z,5.40
2023-03-29T23:41:46.198Z,5.38
2023-03-29T23:44:13.336Z,5.60
2023-03-29T23:46:42.038Z,5.25
2023-03-29T23:49:10.018Z,5.55
2023-03-29T23:51:39.251Z,5.78
2023-03-29T23:54:06.736Z,6.03
2023-03-29T23:56:34.707Z,5.20
2023-03-29T23:59:03.356Z,5.82
